sensor_id;sensor_type;location;lat;lon;timestamp;P1;durP1;ratioP1;P2;durP2;ratioP2
41255;SDS011;26989;45.524;10.938;2023-03-21T00:00:56;51.75;;;31.33;;
41255;SDS011;26989;45.524;10.938;2023-03-21T00:03:24;48.20;;;30.30;;
41255;SDS011;26989;45.524;10.938;2023-03-21T00:05:52;46.45;;;29.20;;
41255;SDS011;26989;45.524;10.938;2023-03-21T00:08:19;46.70;;;30.00;;
41255;SDS011;26989;45.524;10.938;2023-03-21T00:10:55;44.58;;;27.55;;
41255;SDS011;26989;45.524;10.938;2023-03-21T00:13:23;45.55;;;29.10;;
41255;SDS011;26989;45.524;10.938;2023-03-21T00:15:51;45.33;;;30.13;;
41255;SDS011;26989;45.524;10.938;2023-03-21T00:18:33;42.47;;;28.45;;
41255;SDS011;26989;45.524;10.938;2023-03-21T00:21:09;47.85;;;30.90;;
41255;SDS011;26989;45.524;10.938;2023-03-21T00:24:00;44.75;;;28.67;;
41255;SDS011;26989;45.524;10.938;2023-03-21T00:26:27;41.90;;;27.92;;
41255;SDS011;26989;45.524;10.938;2023-03-21T00:28:54;39.40;;;27.48;;
41255;SDS011;26989;45.524;10.938;2023-03-21T00:31:20;39.35;;;25.60;;
41255;SDS011;26989;45.524;10.938;2023-03-21T00:33:47;35.35;;;24.50;;
41255;SDS011;26989;45.524;10.938;2023-03-21T00:36:14;35.17;;;24.08;;
41255;SDS011;26989;45.524;10.938;2023-03-21T00:38:41;34.30;;;24.15;;
41255;SDS011;26989;45.524;10.938;2023-03-21T00:41:10;36.97;;;22.35;;
41255;SDS011;26989;45.524;10.938;2023-03-21T00:43:59;35.53;;;23.63;;
41255;SDS011;26989;45.524;10.938;2023-03-21T00:46:27;34.00;;;24.15;;
41255;SDS011;26989;45.524;10.938;2023-03-21T00:49:07;35.10;;;25.02;;
41255;SDS011;26989;45.524;10.938;2023-03-21T00:51:34;33.40;;;22.30;;
41255;SDS011;26989;45.524;10.938;2023-03-21T00:54:01;36.97;;;22.35;;
41255;SDS011;26989;45.524;10.938;2023-03-21T00:56:30;34.53;;;21.90;;
41255;SDS011;26989;45.524;10.938;2023-03-21T00:58:58;32.45;;;19.98;;
41255;SDS011;26989;45.524;10.938;2023-03-21T01:01:24;31.17;;;20.90;;
41255;SDS011;26989;45.524;10.938;2023-03-21T01:06:28;27.95;;;19.63;;
41255;SDS011;26989;45.524;10.938;2023-03-21T01:08:55;28.63;;;18.30;;
41255;SDS011;26989;45.524;10.938;2023-03-21T01:11:23;25.95;;;18.35;;
41255;SDS011;26989;45.524;10.938;2023-03-21T01:13:52;27.02;;;18.88;;
41255;SDS011;26989;45.524;10.938;2023-03-21T01:16:39;32.50;;;21.50;;
41255;SDS011;26989;45.524;10.938;2023-03-21T01:19:08;29.48;;;19.25;;
41255;SDS011;26989;45.524;10.938;2023-03-21T01:21:50;29.40;;;19.67;;
41255;SDS011;26989;45.524;10.938;2023-03-21T01:24:17;26.27;;;17.67;;
41255;SDS011;26989;45.524;10.938;2023-03-21T01:26:44;23.55;;;17.52;;
41255;SDS011;26989;45.524;10.938;2023-03-21T01:29:10;30.58;;;18.17;;
41255;SDS011;26989;45.524;10.938;2023-03-21T01:31:37;28.00;;;18.63;;
41255;SDS011;26989;45.524;10.938;2023-03-21T01:34:04;26.77;;;17.75;;
41255;SDS011;26989;45.524;10.938;2023-03-21T01:36:31;27.85;;;18.55;;
41255;SDS011;26989;45.524;10.938;2023-03-21T01:38:58;30.67;;;21.58;;
41255;SDS011;26989;45.524;10.938;2023-03-21T01:44:15;35.65;;;22.25;;
41255;SDS011;26989;45.524;10.938;2023-03-21T01:46:47;34.22;;;23.70;;
41255;SDS011;26989;45.524;10.938;2023-03-21T01:49:38;29.50;;;20.67;;
41255;SDS011;26989;45.524;10.938;2023-03-21T01:52:11;27.52;;;17.50;;
41255;SDS011;26989;45.524;10.938;2023-03-21T01:54:58;26.58;;;17.55;;
41255;SDS011;26989;45.524;10.938;2023-03-21T01:57:29;32.88;;;21.17;;
41255;SDS011;26989;45.524;10.938;2023-03-21T02:00:14;26.33;;;18.05;;
41255;SDS011;26989;45.524;10.938;2023-03-21T02:02:42;25.58;;;18.45;;
41255;SDS011;26989;45.524;10.938;2023-03-21T02:08:09;24.67;;;17.60;;
41255;SDS011;26989;45.524;10.938;2023-03-21T02:10:36;32.17;;;20.45;;
41255;SDS011;26989;45.524;10.938;2023-03-21T02:13:03;33.45;;;21.63;;
41255;SDS011;26989;45.524;10.938;2023-03-21T02:15:40;28.65;;;19.02;;
41255;SDS011;26989;45.524;10.938;2023-03-21T02:18:23;26.23;;;18.00;;
41255;SDS011;26989;45.524;10.938;2023-03-21T02:26:34;25.13;;;18.00;;
41255;SDS011;26989;45.524;10.938;2023-03-21T02:29:24;36.55;;;24.42;;
41255;SDS011;26989;45.524;10.938;2023-03-21T02:32:10;35.05;;;23.67;;
41255;SDS011;26989;45.524;10.938;2023-03-21T02:49:31;25.27;;;18.67;;
41255;SDS011;26989;45.524;10.938;2023-03-21T02:52:00;25.10;;;18.67;;
41255;SDS011;26989;45.524;10.938;2023-03-21T02:54:43;26.65;;;18.60;;
41255;SDS011;26989;45.524;10.938;2023-03-21T02:57:15;29.10;;;19.08;;
41255;SDS011;26989;45.524;10.938;2023-03-21T02:59:45;32.15;;;19.25;;
41255;SDS011;26989;45.524;10.938;2023-03-21T03:02:27;36.25;;;16.70;;
41255;SDS011;26989;45.524;10.938;2023-03-21T03:04:54;26.73;;;16.52;;
41255;SDS011;26989;45.524;10.938;2023-03-21T03:07:34;24.55;;;17.58;;
41255;SDS011;26989;45.524;10.938;2023-03-21T03:10:14;29.02;;;18.67;;
41255;SDS011;26989;45.524;10.938;2023-03-21T03:17:51;23.90;;;16.55;;
41255;SDS011;26989;45.524;10.938;2023-03-21T03:23:23;23.40;;;15.85;;
41255;SDS011;26989;45.524;10.938;2023-03-21T03:26:08;23.85;;;15.15;;
41255;SDS011;26989;45.524;10.938;2023-03-21T03:28:40;20.13;;;14.23;;
41255;SDS011;26989;45.524;10.938;2023-03-21T03:31:12;24.30;;;15.15;;
41255;SDS011;26989;45.524;10.938;2023-03-21T03:33:44;21.48;;;14.70;;
41255;SDS011;26989;45.524;10.938;2023-03-21T03:36:15;23.95;;;14.85;;
41255;SDS011;26989;45.524;10.938;2023-03-21T03:38:56;25.52;;;14.35;;
41255;SDS011;26989;45.524;10.938;2023-03-21T03:41:26;21.58;;;14.73;;
41255;SDS011;26989;45.524;10.938;2023-03-21T03:44:01;20.40;;;15.05;;
41255;SDS011;26989;45.524;10.938;2023-03-21T03:46:29;24.65;;;16.38;;
41255;SDS011;26989;45.524;10.938;2023-03-21T03:49:03;26.83;;;17.38;;
41255;SDS011;26989;45.524;10.938;2023-03-21T03:51:36;25.63;;;16.33;;
41255;SDS011;26989;45.524;10.938;2023-03-21T03:54:18;23.20;;;15.18;;
41255;SDS011;26989;45.524;10.938;2023-03-21T03:56:53;24.20;;;15.77;;
41255;SDS011;26989;45.524;10.938;2023-03-21T03:59:21;24.50;;;16.58;;
41255;SDS011;26989;45.524;10.938;2023-03-21T04:01:50;23.52;;;16.58;;
41255;SDS011;26989;45.524;10.938;2023-03-21T04:04:17;25.08;;;16.77;;
41255;SDS011;26989;45.524;10.938;2023-03-21T04:06:47;21.52;;;15.90;;
41255;SDS011;26989;45.524;10.938;2023-03-21T04:09:17;22.77;;;15.90;;
41255;SDS011;26989;45.524;10.938;2023-03-21T04:11:51;23.27;;;16.25;;
41255;SDS011;26989;45.524;10.938;2023-03-21T04:14:19;23.40;;;16.35;;
41255;SDS011;26989;45.524;10.938;2023-03-21T04:16:46;24.48;;;15.80;;
41255;SDS011;26989;45.524;10.938;2023-03-21T04:19:12;22.48;;;15.10;;
41255;SDS011;26989;45.524;10.938;2023-03-21T04:21:41;26.15;;;16.70;;
41255;SDS011;26989;45.524;10.938;2023-03-21T04:24:08;27.42;;;17.40;;
41255;SDS011;26989;45.524;10.938;2023-03-21T04:26:37;26.27;;;17.40;;
41255;SDS011;26989;45.524;10.938;2023-03-21T04:29:04;25.92;;;17.10;;
41255;SDS011;26989;45.524;10.938;2023-03-21T04:31:31;25.38;;;16.45;;
41255;SDS011;26989;45.524;10.938;2023-03-21T04:34:00;25.45;;;16.88;;
41255;SDS011;26989;45.524;10.938;2023-03-21T04:36:29;24.75;;;15.32;;
41255;SDS011;26989;45.524;10.938;2023-03-21T04:38:56;19.65;;;14.32;;
41255;SDS011;26989;45.524;10.938;2023-03-21T04:41:27;24.33;;;14.60;;
41255;SDS011;26989;45.524;10.938;2023-03-21T04:43:54;26.40;;;18.05;;
41255;SDS011;26989;45.524;10.938;2023-03-21T04:46:22;27.33;;;17.20;;
41255;SDS011;26989;45.524;10.938;2023-03-21T04:48:49;23.63;;;16.15;;
41255;SDS011;26989;45.524;10.938;2023-03-21T04:51:16;31.77;;;17.95;;
41255;SDS011;26989;45.524;10.938;2023-03-21T04:53:43;20.05;;;13.52;;
41255;SDS011;26989;45.524;10.938;2023-03-21T04:56:11;28.30;;;14.60;;
41255;SDS011;26989;45.524;10.938;2023-03-21T04:58:38;26.45;;;13.65;;
41255;SDS011;26989;45.524;10.938;2023-03-21T05:01:08;21.65;;;13.30;;
41255;SDS011;26989;45.524;10.938;2023-03-21T05:03:35;27.98;;;14.85;;
41255;SDS011;26989;45.524;10.938;2023-03-21T05:06:06;26.85;;;16.48;;
41255;SDS011;26989;45.524;10.938;2023-03-21T05:08:34;25.15;;;17.33;;
41255;SDS011;26989;45.524;10.938;2023-03-21T05:11:02;25.35;;;17.77;;
41255;SDS011;26989;45.524;10.938;2023-03-21T05:13:29;29.05;;;15.95;;
41255;SDS011;26989;45.524;10.938;2023-03-21T05:15:56;30.73;;;20.35;;
41255;SDS011;26989;45.524;10.938;2023-03-21T05:18:22;30.88;;;21.60;;
41255;SDS011;26989;45.524;10.938;2023-03-21T05:20:52;37.92;;;24.10;;
41255;SDS011;26989;45.524;10.938;2023-03-21T05:23:20;46.25;;;27.02;;
41255;SDS011;26989;45.524;10.938;2023-03-21T05:25:47;40.40;;;27.05;;
41255;SDS011;26989;45.524;10.938;2023-03-21T05:28:15;43.90;;;28.10;;
41255;SDS011;26989;45.524;10.938;2023-03-21T05:30:43;37.50;;;25.55;;
41255;SDS011;26989;45.524;10.938;2023-03-21T05:33:11;37.05;;;23.30;;
41255;SDS011;26989;45.524;10.938;2023-03-21T05:35:38;34.63;;;23.25;;
41255;SDS011;26989;45.524;10.938;2023-03-21T05:38:05;38.20;;;24.65;;
41255;SDS011;26989;45.524;10.938;2023-03-21T05:40:32;39.58;;;25.63;;
41255;SDS011;26989;45.524;10.938;2023-03-21T05:42:59;41.95;;;26.50;;
41255;SDS011;26989;45.524;10.938;2023-03-21T05:45:26;38.25;;;24.35;;
41255;SDS011;26989;45.524;10.938;2023-03-21T05:47:53;40.20;;;23.45;;
41255;SDS011;26989;45.524;10.938;2023-03-21T05:50:20;39.85;;;26.60;;
41255;SDS011;26989;45.524;10.938;2023-03-21T05:52:47;39.83;;;26.00;;
41255;SDS011;26989;45.524;10.938;2023-03-21T05:55:13;41.58;;;25.15;;
41255;SDS011;26989;45.524;10.938;2023-03-21T05:57:40;39.75;;;26.48;;
41255;SDS011;26989;45.524;10.938;2023-03-21T06:00:07;42.30;;;27.98;;
41255;SDS011;26989;45.524;10.938;2023-03-21T06:02:34;42.25;;;28.13;;
41255;SDS011;26989;45.524;10.938;2023-03-21T06:05:01;47.38;;;28.98;;
41255;SDS011;26989;45.524;10.938;2023-03-21T06:07:28;43.20;;;28.83;;
41255;SDS011;26989;45.524;10.938;2023-03-21T06:09:55;48.10;;;29.40;;
41255;SDS011;26989;45.524;10.938;2023-03-21T06:12:22;49.42;;;28.95;;
41255;SDS011;26989;45.524;10.938;2023-03-21T06:14:49;39.88;;;26.60;;
41255;SDS011;26989;45.524;10.938;2023-03-21T06:17:16;39.08;;;26.08;;
41255;SDS011;26989;45.524;10.938;2023-03-21T06:19:42;38.78;;;26.88;;
41255;SDS011;26989;45.524;10.938;2023-03-21T06:22:09;40.40;;;26.95;;
41255;SDS011;26989;45.524;10.938;2023-03-21T06:24:36;44.92;;;26.10;;
41255;SDS011;26989;45.524;10.938;2023-03-21T06:27:03;42.17;;;27.33;;
41255;SDS011;26989;45.524;10.938;2023-03-21T06:29:30;39.08;;;26.15;;
41255;SDS011;26989;45.524;10.938;2023-03-21T06:31:57;39.15;;;27.27;;
41255;SDS011;26989;45.524;10.938;2023-03-21T06:34:24;43.90;;;26.02;;
41255;SDS011;26989;45.524;10.938;2023-03-21T06:36:51;39.85;;;27.38;;
41255;SDS011;26989;45.524;10.938;2023-03-21T06:39:21;41.15;;;26.55;;
41255;SDS011;26989;45.524;10.938;2023-03-21T06:41:47;41.53;;;28.15;;
41255;SDS011;26989;45.524;10.938;2023-03-21T06:44:14;41.15;;;27.33;;
41255;SDS011;26989;45.524;10.938;2023-03-21T06:46:41;41.00;;;26.52;;
41255;SDS011;26989;45.524;10.938;2023-03-21T06:49:08;44.50;;;27.85;;
41255;SDS011;26989;45.524;10.938;2023-03-21T06:51:35;41.42;;;26.83;;
41255;SDS011;26989;45.524;10.938;2023-03-21T06:54:02;40.10;;;25.83;;
41255;SDS011;26989;45.524;10.938;2023-03-21T06:56:29;43.83;;;26.63;;
41255;SDS011;26989;45.524;10.938;2023-03-21T06:58:56;43.28;;;27.38;;
41255;SDS011;26989;45.524;10.938;2023-03-21T07:01:23;35.40;;;23.52;;
41255;SDS011;26989;45.524;10.938;2023-03-21T07:03:53;38.08;;;23.15;;
41255;SDS011;26989;45.524;10.938;2023-03-21T07:06:22;33.58;;;21.35;;
41255;SDS011;26989;45.524;10.938;2023-03-21T07:08:52;34.03;;;22.77;;
41255;SDS011;26989;45.524;10.938;2023-03-21T07:11:20;34.53;;;22.98;;
41255;SDS011;26989;45.524;10.938;2023-03-21T07:13:48;32.97;;;23.02;;
41255;SDS011;26989;45.524;10.938;2023-03-21T07:16:16;38.95;;;24.30;;
41255;SDS011;26989;45.524;10.938;2023-03-21T07:18:43;35.10;;;24.58;;
41255;SDS011;26989;45.524;10.938;2023-03-21T07:21:10;37.88;;;25.75;;
41255;SDS011;26989;45.524;10.938;2023-03-21T07:23:37;39.00;;;26.88;;
41255;SDS011;26989;45.524;10.938;2023-03-21T07:26:04;36.28;;;26.98;;
41255;SDS011;26989;45.524;10.938;2023-03-21T07:28:32;39.47;;;27.45;;
41255;SDS011;26989;45.524;10.938;2023-03-21T07:31:00;126.97;;;31.02;;
41255;SDS011;26989;45.524;10.938;2023-03-21T07:33:30;148.55;;;36.10;;
41255;SDS011;26989;45.524;10.938;2023-03-21T07:35:58;47.35;;;27.73;;
41255;SDS011;26989;45.524;10.938;2023-03-21T07:38:25;43.75;;;29.40;;
41255;SDS011;26989;45.524;10.938;2023-03-21T07:40:52;455.38;;;63.30;;
41255;SDS011;26989;45.524;10.938;2023-03-21T07:43:19;53.50;;;30.80;;
41255;SDS011;26989;45.524;10.938;2023-03-21T07:45:46;44.25;;;29.52;;
41255;SDS011;26989;45.524;10.938;2023-03-21T07:48:13;42.72;;;29.92;;
41255;SDS011;26989;45.524;10.938;2023-03-21T07:50:42;45.28;;;30.80;;
41255;SDS011;26989;45.524;10.938;2023-03-21T07:53:09;46.90;;;32.53;;
41255;SDS011;26989;45.524;10.938;2023-03-21T07:55:36;48.80;;;31.60;;
41255;SDS011;26989;45.524;10.938;2023-03-21T07:58:03;47.30;;;31.10;;
41255;SDS011;26989;45.524;10.938;2023-03-21T08:00:31;45.63;;;31.55;;
41255;SDS011;26989;45.524;10.938;2023-03-21T08:02:58;50.10;;;31.92;;
41255;SDS011;26989;45.524;10.938;2023-03-21T08:05:26;50.22;;;32.97;;
41255;SDS011;26989;45.524;10.938;2023-03-21T08:07:56;44.10;;;30.45;;
41255;SDS011;26989;45.524;10.938;2023-03-21T08:10:23;46.72;;;30.63;;
41255;SDS011;26989;45.524;10.938;2023-03-21T08:12:50;47.35;;;31.13;;
41255;SDS011;26989;45.524;10.938;2023-03-21T08:15:17;43.55;;;30.98;;
41255;SDS011;26989;45.524;10.938;2023-03-21T08:17:44;45.30;;;31.70;;
41255;SDS011;26989;45.524;10.938;2023-03-21T08:20:12;43.35;;;30.10;;
41255;SDS011;26989;45.524;10.938;2023-03-21T08:22:42;44.97;;;31.42;;
41255;SDS011;26989;45.524;10.938;2023-03-21T08:25:11;48.38;;;31.52;;
41255;SDS011;26989;45.524;10.938;2023-03-21T08:27:40;50.03;;;33.53;;
41255;SDS011;26989;45.524;10.938;2023-03-21T08:30:08;50.33;;;35.30;;
41255;SDS011;26989;45.524;10.938;2023-03-21T08:32:38;48.58;;;32.90;;
41255;SDS011;26989;45.524;10.938;2023-03-21T08:35:06;49.30;;;34.35;;
41255;SDS011;26989;45.524;10.938;2023-03-21T08:37:35;55.90;;;36.15;;
41255;SDS011;26989;45.524;10.938;2023-03-21T08:40:07;56.08;;;36.88;;
41255;SDS011;26989;45.524;10.938;2023-03-21T08:42:37;54.92;;;38.38;;
41255;SDS011;26989;45.524;10.938;2023-03-21T08:45:05;67.68;;;41.55;;
41255;SDS011;26989;45.524;10.938;2023-03-21T08:47:33;68.05;;;43.20;;
41255;SDS011;26989;45.524;10.938;2023-03-21T08:49:59;81.35;;;46.97;;
41255;SDS011;26989;45.524;10.938;2023-03-21T08:52:26;77.32;;;45.88;;
41255;SDS011;26989;45.524;10.938;2023-03-21T08:54:53;74.10;;;47.72;;
41255;SDS011;26989;45.524;10.938;2023-03-21T08:57:20;74.65;;;45.58;;
41255;SDS011;26989;45.524;10.938;2023-03-21T08:59:47;63.78;;;41.75;;
41255;SDS011;26989;45.524;10.938;2023-03-21T09:02:15;56.92;;;39.72;;
41255;SDS011;26989;45.524;10.938;2023-03-21T09:04:42;60.45;;;39.90;;
41255;SDS011;26989;45.524;10.938;2023-03-21T09:07:10;57.75;;;40.17;;
41255;SDS011;26989;45.524;10.938;2023-03-21T09:09:40;56.67;;;39.58;;
41255;SDS011;26989;45.524;10.938;2023-03-21T09:12:07;60.08;;;38.88;;
41255;SDS011;26989;45.524;10.938;2023-03-21T09:14:34;55.47;;;37.33;;
41255;SDS011;26989;45.524;10.938;2023-03-21T09:17:01;50.40;;;36.67;;
41255;SDS011;26989;45.524;10.938;2023-03-21T09:19:28;80.10;;;41.05;;
41255;SDS011;26989;45.524;10.938;2023-03-21T09:21:57;49.90;;;37.58;;
41255;SDS011;26989;45.524;10.938;2023-03-21T09:24:24;60.35;;;38.05;;
41255;SDS011;26989;45.524;10.938;2023-03-21T09:26:51;55.15;;;37.03;;
41255;SDS011;26989;45.524;10.938;2023-03-21T09:29:18;54.50;;;35.78;;
41255;SDS011;26989;45.524;10.938;2023-03-21T09:31:46;49.25;;;35.45;;
41255;SDS011;26989;45.524;10.938;2023-03-21T09:34:14;51.35;;;36.03;;
41255;SDS011;26989;45.524;10.938;2023-03-21T09:36:41;52.70;;;36.67;;
41255;SDS011;26989;45.524;10.938;2023-03-21T09:39:09;48.58;;;35.72;;
41255;SDS011;26989;45.524;10.938;2023-03-21T09:49:55;48.90;;;33.75;;
41255;SDS011;26989;45.524;10.938;2023-03-21T09:52:46;48.05;;;33.10;;
41255;SDS011;26989;45.524;10.938;2023-03-21T09:55:35;43.88;;;31.35;;
41255;SDS011;26989;45.524;10.938;2023-03-21T10:00:58;40.75;;;30.10;;
41255;SDS011;26989;45.524;10.938;2023-03-21T10:03:32;43.55;;;30.02;;
41255;SDS011;26989;45.524;10.938;2023-03-21T10:06:02;41.42;;;29.17;;
41255;SDS011;26989;45.524;10.938;2023-03-21T10:08:34;39.55;;;29.42;;
41255;SDS011;26989;45.524;10.938;2023-03-21T10:11:11;41.38;;;28.17;;
41255;SDS011;26989;45.524;10.938;2023-03-21T10:14:01;40.28;;;26.63;;
41255;SDS011;26989;45.524;10.938;2023-03-21T10:16:36;43.08;;;29.50;;
41255;SDS011;26989;45.524;10.938;2023-03-21T10:19:09;37.67;;;27.65;;
41255;SDS011;26989;45.524;10.938;2023-03-21T10:21:39;38.30;;;28.92;;
41255;SDS011;26989;45.524;10.938;2023-03-21T10:24:25;40.90;;;29.40;;
41255;SDS011;26989;45.524;10.938;2023-03-21T10:26:54;45.50;;;31.83;;
41255;SDS011;26989;45.524;10.938;2023-03-21T10:29:24;43.70;;;32.05;;
41255;SDS011;26989;45.524;10.938;2023-03-21T10:34:39;45.60;;;32.90;;
41255;SDS011;26989;45.524;10.938;2023-03-21T10:37:11;48.10;;;33.05;;
41255;SDS011;26989;45.524;10.938;2023-03-21T10:39:40;53.30;;;35.35;;
41255;SDS011;26989;45.524;10.938;2023-03-21T10:42:14;46.45;;;34.78;;
41255;SDS011;26989;45.524;10.938;2023-03-21T10:44:50;50.40;;;36.10;;
41255;SDS011;26989;45.524;10.938;2023-03-21T10:47:20;50.67;;;36.85;;
41255;SDS011;26989;45.524;10.938;2023-03-21T10:49:52;53.35;;;37.33;;
41255;SDS011;26989;45.524;10.938;2023-03-21T10:52:33;46.45;;;35.35;;
41255;SDS011;26989;45.524;10.938;2023-03-21T10:57:59;48.78;;;37.15;;
41255;SDS011;26989;45.524;10.938;2023-03-21T11:00:34;51.97;;;35.30;;
41255;SDS011;26989;45.524;10.938;2023-03-21T11:03:18;52.53;;;34.53;;
41255;SDS011;26989;45.524;10.938;2023-03-21T11:05:51;49.40;;;34.85;;
41255;SDS011;26989;45.524;10.938;2023-03-21T11:08:21;45.95;;;34.67;;
41255;SDS011;26989;45.524;10.938;2023-03-21T11:10:53;53.63;;;33.17;;
41255;SDS011;26989;45.524;10.938;2023-03-21T11:13:31;111.35;;;39.25;;
41255;SDS011;26989;45.524;10.938;2023-03-21T11:16:25;48.75;;;32.65;;
41255;SDS011;26989;45.524;10.938;2023-03-21T11:18:59;41.10;;;29.77;;
41255;SDS011;26989;45.524;10.938;2023-03-21T11:21:33;40.22;;;29.63;;
41255;SDS011;26989;45.524;10.938;2023-03-21T11:24:02;41.47;;;30.02;;
41255;SDS011;26989;45.524;10.938;2023-03-21T11:26:34;36.00;;;26.98;;
41255;SDS011;26989;45.524;10.938;2023-03-21T11:29:37;39.28;;;25.15;;
41255;SDS011;26989;45.524;10.938;2023-03-21T11:32:40;32.70;;;22.42;;
41255;SDS011;26989;45.524;10.938;2023-03-21T11:34:59;31.73;;;23.20;;
41255;SDS011;26989;45.524;10.938;2023-03-21T11:37:33;36.13;;;23.38;;
41255;SDS011;26989;45.524;10.938;2023-03-21T11:40:26;35.95;;;23.55;;
41255;SDS011;26989;45.524;10.938;2023-03-21T11:43:00;31.45;;;22.70;;
41255;SDS011;26989;45.524;10.938;2023-03-21T11:45:33;34.22;;;24.33;;
41255;SDS011;26989;45.524;10.938;2023-03-21T11:48:03;27.33;;;18.33;;
41255;SDS011;26989;45.524;10.938;2023-03-21T11:50:37;22.00;;;16.45;;
41255;SDS011;26989;45.524;10.938;2023-03-21T11:53:14;25.90;;;15.75;;
41255;SDS011;26989;45.524;10.938;2023-03-21T11:55:51;23.85;;;14.93;;
41255;SDS011;26989;45.524;10.938;2023-03-21T11:58:40;20.65;;;16.30;;
41255;SDS011;26989;45.524;10.938;2023-03-21T12:04:20;21.80;;;14.48;;
41255;SDS011;26989;45.524;10.938;2023-03-21T12:26:55;14.77;;;9.55;;
41255;SDS011;26989;45.524;10.938;2023-03-21T12:29:48;13.50;;;9.50;;
41255;SDS011;26989;45.524;10.938;2023-03-21T12:35:01;15.23;;;10.68;;
41255;SDS011;26989;45.524;10.938;2023-03-21T12:37:42;10.75;;;8.75;;
41255;SDS011;26989;45.524;10.938;2023-03-21T12:40:16;15.10;;;9.00;;
41255;SDS011;26989;45.524;10.938;2023-03-21T12:43:06;17.42;;;11.02;;
41255;SDS011;26989;45.524;10.938;2023-03-21T12:45:49;17.13;;;9.95;;
41255;SDS011;26989;45.524;10.938;2023-03-21T12:48:31;14.90;;;9.48;;
41255;SDS011;26989;45.524;10.938;2023-03-21T12:51:13;14.68;;;10.50;;
41255;SDS011;26989;45.524;10.938;2023-03-21T12:56:20;12.93;;;10.30;;
41255;SDS011;26989;45.524;10.938;2023-03-21T12:58:57;17.83;;;11.27;;
41255;SDS011;26989;45.524;10.938;2023-03-21T13:01:28;17.95;;;11.50;;
41255;SDS011;26989;45.524;10.938;2023-03-21T13:06:42;21.20;;;13.40;;
41255;SDS011;26989;45.524;10.938;2023-03-21T13:09:13;26.67;;;17.35;;
41255;SDS011;26989;45.524;10.938;2023-03-21T13:11:56;22.55;;;16.83;;
41255;SDS011;26989;45.524;10.938;2023-03-21T13:14:32;24.23;;;17.10;;
41255;SDS011;26989;45.524;10.938;2023-03-21T13:17:14;27.20;;;18.13;;
41255;SDS011;26989;45.524;10.938;2023-03-21T13:20:13;24.95;;;19.00;;
41255;SDS011;26989;45.524;10.938;2023-03-21T13:22:45;27.90;;;20.10;;
41255;SDS011;26989;45.524;10.938;2023-03-21T13:25:17;35.05;;;25.17;;
41255;SDS011;26989;45.524;10.938;2023-03-21T13:27:52;32.85;;;22.58;;
41255;SDS011;26989;45.524;10.938;2023-03-21T13:30:24;30.67;;;21.15;;
41255;SDS011;26989;45.524;10.938;2023-03-21T13:33:06;26.10;;;19.60;;
41255;SDS011;26989;45.524;10.938;2023-03-21T13:35:37;36.00;;;24.25;;
41255;SDS011;26989;45.524;10.938;2023-03-21T13:38:18;36.88;;;24.50;;
41255;SDS011;26989;45.524;10.938;2023-03-21T13:40:56;30.33;;;22.80;;
41255;SDS011;26989;45.524;10.938;2023-03-21T13:48:54;28.48;;;21.63;;
41255;SDS011;26989;45.524;10.938;2023-03-21T13:59:12;27.58;;;18.95;;
41255;SDS011;26989;45.524;10.938;2023-03-21T14:02:11;32.35;;;21.63;;
41255;SDS011;26989;45.524;10.938;2023-03-21T14:04:38;33.55;;;23.35;;
41255;SDS011;26989;45.524;10.938;2023-03-21T14:07:26;32.15;;;21.88;;
41255;SDS011;26989;45.524;10.938;2023-03-21T14:09:57;31.00;;;22.30;;
41255;SDS011;26989;45.524;10.938;2023-03-21T14:12:33;28.52;;;20.25;;
41255;SDS011;26989;45.524;10.938;2023-03-21T14:15:18;29.85;;;21.70;;
41255;SDS011;26989;45.524;10.938;2023-03-21T14:17:48;28.00;;;20.05;;
41255;SDS011;26989;45.524;10.938;2023-03-21T14:20:27;34.85;;;22.25;;
41255;SDS011;26989;45.524;10.938;2023-03-21T14:22:56;30.17;;;21.52;;
41255;SDS011;26989;45.524;10.938;2023-03-21T14:25:24;30.33;;;22.50;;
41255;SDS011;26989;45.524;10.938;2023-03-21T14:28:07;29.98;;;22.77;;
41255;SDS011;26989;45.524;10.938;2023-03-21T14:30:41;31.08;;;24.52;;
41255;SDS011;26989;45.524;10.938;2023-03-21T14:35:54;35.97;;;25.05;;
41255;SDS011;26989;45.524;10.938;2023-03-21T14:38:31;35.75;;;24.77;;
41255;SDS011;26989;45.524;10.938;2023-03-21T14:40:59;37.17;;;26.48;;
41255;SDS011;26989;45.524;10.938;2023-03-21T14:43:26;35.33;;;25.65;;
41255;SDS011;26989;45.524;10.938;2023-03-21T14:45:54;32.78;;;25.90;;
41255;SDS011;26989;45.524;10.938;2023-03-21T14:48:29;33.90;;;24.73;;
41255;SDS011;26989;45.524;10.938;2023-03-21T14:51:04;41.53;;;30.00;;
41255;SDS011;26989;45.524;10.938;2023-03-21T14:53:35;33.08;;;25.50;;
41255;SDS011;26989;45.524;10.938;2023-03-21T14:56:23;34.17;;;25.52;;
41255;SDS011;26989;45.524;10.938;2023-03-21T14:58:50;34.95;;;24.88;;
41255;SDS011;26989;45.524;10.938;2023-03-21T15:01:29;33.13;;;25.05;;
41255;SDS011;26989;45.524;10.938;2023-03-21T15:04:00;33.67;;;25.20;;
41255;SDS011;26989;45.524;10.938;2023-03-21T15:06:31;39.45;;;27.33;;
41255;SDS011;26989;45.524;10.938;2023-03-21T15:09:02;38.95;;;26.52;;
41255;SDS011;26989;45.524;10.938;2023-03-21T15:11:39;37.03;;;27.77;;
41255;SDS011;26989;45.524;10.938;2023-03-21T15:14:07;41.47;;;27.85;;
41255;SDS011;26989;45.524;10.938;2023-03-21T15:16:37;41.65;;;27.00;;
41255;SDS011;26989;45.524;10.938;2023-03-21T15:19:05;37.25;;;27.88;;
41255;SDS011;26989;45.524;10.938;2023-03-21T15:21:37;45.50;;;30.23;;
41255;SDS011;26989;45.524;10.938;2023-03-21T15:24:09;38.22;;;27.55;;
41255;SDS011;26989;45.524;10.938;2023-03-21T15:26:44;39.13;;;26.45;;
41255;SDS011;26989;45.524;10.938;2023-03-21T15:29:13;39.67;;;27.85;;
41255;SDS011;26989;45.524;10.938;2023-03-21T15:31:41;43.35;;;29.25;;
41255;SDS011;26989;45.524;10.938;2023-03-21T15:34:27;36.80;;;28.10;;
41255;SDS011;26989;45.524;10.938;2023-03-21T15:37:05;35.25;;;27.85;;
41255;SDS011;26989;45.524;10.938;2023-03-21T15:39:33;39.75;;;27.70;;
41255;SDS011;26989;45.524;10.938;2023-03-21T15:42:23;40.47;;;29.00;;
41255;SDS011;26989;45.524;10.938;2023-03-21T15:44:51;46.40;;;32.60;;
41255;SDS011;26989;45.524;10.938;2023-03-21T15:52:52;38.38;;;26.75;;
41255;SDS011;26989;45.524;10.938;2023-03-21T15:55:26;38.17;;;28.33;;
41255;SDS011;26989;45.524;10.938;2023-03-21T15:58:01;34.85;;;26.58;;
41255;SDS011;26989;45.524;10.938;2023-03-21T16:03:27;35.75;;;27.15;;
41255;SDS011;26989;45.524;10.938;2023-03-21T16:08:47;38.10;;;26.85;;
41255;SDS011;26989;45.524;10.938;2023-03-21T16:13:50;35.47;;;26.85;;
41255;SDS011;26989;45.524;10.938;2023-03-21T16:16:19;42.00;;;28.00;;
41255;SDS011;26989;45.524;10.938;2023-03-21T16:18:47;35.50;;;26.67;;
41255;SDS011;26989;45.524;10.938;2023-03-21T16:21:15;34.72;;;25.92;;
41255;SDS011;26989;45.524;10.938;2023-03-21T16:23:44;39.88;;;26.80;;
41255;SDS011;26989;45.524;10.938;2023-03-21T16:26:13;35.55;;;25.65;;
41255;SDS011;26989;45.524;10.938;2023-03-21T16:28:43;36.78;;;26.02;;